sensor_id;sensor_type;location;lat;lon;timestamp;temperature;humidity
21246;DHT22;10781;50.928;4.440;2022-09-30T00:01:28;12.60;99.90
21246;DHT22;10781;50.928;4.440;2022-09-30T00:03:55;12.50;99.90
21246;DHT22;10781;50.928;4.440;2022-09-30T00:06:22;12.40;99.90
21246;DHT22;10781;50.928;4.440;2022-09-30T00:08:48;12.40;99.90
21246;DHT22;10781;50.928;4.440;2022-09-30T00:11:17;12.30;99.90
21246;DHT22;10781;50.928;4.440;2022-09-30T00:13:45;12.30;99.90
21246;DHT22;10781;50.928;4.440;2022-09-30T00:16:12;12.30;99.90
21246;DHT22;10781;50.928;4.440;2022-09-30T00:18:39;12.40;99.90
21246;DHT22;10781;50.928;4.440;2022-09-30T00:21:06;12.40;99.90
21246;DHT22;10781;50.928;4.440;2022-09-30T00:23:32;12.30;99.90
21246;DHT22;10781;50.928;4.440;2022-09-30T00:26:00;12.20;99.90
21246;DHT22;10781;50.928;4.440;2022-09-30T00:28:27;12.30;99.90
21246;DHT22;10781;50.928;4.440;2022-09-30T00:30:53;12.30;99.90
21246;DHT22;10781;50.928;4.440;2022-09-30T00:33:19;12.20;99.90
21246;DHT22;10781;50.928;4.440;2022-09-30T00:35:45;12.40;99.90
21246;DHT22;10781;50.928;4.440;2022-09-30T00:38:11;12.50;99.90
21246;DHT22;10781;50.928;4.440;2022-09-30T00:40:39;12.30;99.90
21246;DHT22;10781;50.928;4.440;2022-09-30T00:43:13;12.20;99.90
21246;DHT22;10781;50.928;4.440;2022-09-30T00:46:00;12.30;99.90
21246;DHT22;10781;50.928;4.440;2022-09-30T00:48:33;12.40;99.90
21246;DHT22;10781;50.928;4.440;2022-09-30T00:51:01;12.10;99.90
21246;DHT22;10781;50.928;4.440;2022-09-30T00:53:27;11.90;99.90
21246;DHT22;10781;50.928;4.440;2022-09-30T00:56:05;11.80;99.90
21246;DHT22;10781;50.928;4.440;2022-09-30T01:01:09;11.60;99.90
21246;DHT22;10781;50.928;4.440;2022-09-30T01:03:39;11.80;99.90
21246;DHT22;10781;50.928;4.440;2022-09-30T01:06:05;11.90;99.90
21246;DHT22;10781;50.928;4.440;2022-09-30T01:08:34;12.00;99.90
21246;DHT22;10781;50.928;4.440;2022-09-30T01:11:00;12.00;99.90
21246;DHT22;10781;50.928;4.440;2022-09-30T01:13:27;12.00;99.90
21246;DHT22;10781;50.928;4.440;2022-09-30T01:21:13;11.90;99.90
21246;DHT22;10781;50.928;4.440;2022-09-30T01:26:44;12.20;99.90
21246;DHT22;10781;50.928;4.440;2022-09-30T01:35:01;12.00;99.90
21246;DHT22;10781;50.928;4.440;2022-09-30T01:40:35;11.70;99.90
21246;DHT22;10781;50.928;4.440;2022-09-30T01:45:43;11.80;99.90
21246;DHT22;10781;50.928;4.440;2022-09-30T01:48:17;11.90;99.90
21246;DHT22;10781;50.928;4.440;2022-09-30T01:50:54;11.90;99.90
21246;DHT22;10781;50.928;4.440;2022-09-30T01:55:57;11.80;99.90
21246;DHT22;10781;50.928;4.440;2022-09-30T01:58:41;11.60;99.90
21246;DHT22;10781;50.928;4.440;2022-09-30T02:01:15;11.60;99.90
21246;DHT22;10781;50.928;4.440;2022-09-30T02:03:48;11.80;99.90
21246;DHT22;10781;50.928;4.440;2022-09-30T02:06:20;12.00;99.90
21246;DHT22;10781;50.928;4.440;2022-09-30T02:09:12;12.00;99.90
21246;DHT22;10781;50.928;4.440;2022-09-30T02:11:40;11.90;99.90
21246;DHT22;10781;50.928;4.440;2022-09-30T02:14:31;12.00;99.90
21246;DHT22;10781;50.928;4.440;2022-09-30T02:17:48;11.90;99.90
21246;DHT22;10781;50.928;4.440;2022-09-30T02:20:02;11.40;99.90
21246;DHT22;10781;50.928;4.440;2022-09-30T02:22:49;11.40;99.90
21246;DHT22;10781;50.928;4.440;2022-09-30T02:25:21;11.30;99.90
21246;DHT22;10781;50.928;4.440;2022-09-30T02:27:56;11.40;99.90
21246;DHT22;10781;50.928;4.440;2022-09-30T02:30:22;11.60;99.90
21246;DHT22;10781;50.928;4.440;2022-09-30T02:33:10;11.70;99.90
21246;DHT22;10781;50.928;4.440;2022-09-30T02:35:52;11.50;99.90
21246;DHT22;10781;50.928;4.440;2022-09-30T02:38:22;11.50;99.90
21246;DHT22;10781;50.928;4.440;2022-09-30T02:40:59;11.60;99.90
21246;DHT22;10781;50.928;4.440;2022-09-30T02:43:26;11.60;99.90
21246;DHT22;10781;50.928;4.440;2022-09-30T02:46:00;11.60;99.90
21246;DHT22;10781;50.928;4.440;2022-09-30T02:48:51;11.20;99.90
21246;DHT22;10781;50.928;4.440;2022-09-30T02:51:36;11.30;99.90
21246;DHT22;10781;50.928;4.440;2022-09-30T02:54:22;11.50;99.90
21246;DHT22;10781;50.928;4.440;2022-09-30T02:56:56;11.50;99.90
21246;DHT22;10781;50.928;4.440;2022-09-30T02:59:25;11.60;99.90
21246;DHT22;10781;50.928;4.440;2022-09-30T03:01:51;11.40;99.90
21246;DHT22;10781;50.928;4.440;2022-09-30T03:04:26;11.20;99.90
21246;DHT22;10781;50.928;4.440;2022-09-30T03:06:53;11.30;99.90
21246;DHT22;10781;50.928;4.440;2022-09-30T03:09:24;10.90;99.90
21246;DHT22;10781;50.928;4.440;2022-09-30T03:11:54;11.10;99.90
21246;DHT22;10781;50.928;4.440;2022-09-30T03:17:49;11.60;99.90
21246;DHT22;10781;50.928;4.440;2022-09-30T03:20:58;11.40;99.90
21246;DHT22;10781;50.928;4.440;2022-09-30T03:26:59;11.30;99.90
21246;DHT22;10781;50.928;4.440;2022-09-30T03:29:48;11.20;99.90
21246;DHT22;10781;50.928;4.440;2022-09-30T03:38:00;11.00;99.90
21246;DHT22;10781;50.928;4.440;2022-09-30T03:43:15;11.20;99.90
21246;DHT22;10781;50.928;4.440;2022-09-30T03:46:05;11.40;99.90
21246;DHT22;10781;50.928;4.440;2022-09-30T03:48:35;11.40;99.90
21246;DHT22;10781;50.928;4.440;2022-09-30T03:51:03;11.10;99.90
21246;DHT22;10781;50.928;4.440;2022-09-30T03:53:30;10.90;99.90
21246;DHT22;10781;50.928;4.440;2022-09-30T03:55:55;10.80;99.90
21246;DHT22;10781;50.928;4.440;2022-09-30T03:58:22;10.80;99.90
21246;DHT22;10781;50.928;4.440;2022-09-30T04:00:52;10.60;99.90
21246;DHT22;10781;50.928;4.440;2022-09-30T04:03:20;10.60;99.90
21246;DHT22;10781;50.928;4.440;2022-09-30T04:05:46;10.80;99.90
21246;DHT22;10781;50.928;4.440;2022-09-30T04:08:12;11.10;99.90
21246;DHT22;10781;50.928;4.440;2022-09-30T04:10:39;11.10;99.90
21246;DHT22;10781;50.928;4.440;2022-09-30T04:13:06;11.10;99.90
21246;DHT22;10781;50.928;4.440;2022-09-30T04:15:33;11.20;99.90
21246;DHT22;10781;50.928;4.440;2022-09-30T04:17:58;11.00;99.90
21246;DHT22;10781;50.928;4.440;2022-09-30T04:20:24;10.90;99.90
21246;DHT22;10781;50.928;4.440;2022-09-30T04:22:50;10.70;99.90
21246;DHT22;10781;50.928;4.440;2022-09-30T04:25:17;10.80;99.90
21246;DHT22;10781;50.928;4.440;2022-09-30T04:27:42;11.10;99.90
21246;DHT22;10781;50.928;4.440;2022-09-30T04:30:08;11.20;99.90
21246;DHT22;10781;50.928;4.440;2022-09-30T04:32:34;11.20;99.90
21246;DHT22;10781;50.928;4.440;2022-09-30T04:35:00;11.10;99.90
21246;DHT22;10781;50.928;4.440;2022-09-30T04:37:25;11.10;99.90
21246;DHT22;10781;50.928;4.440;2022-09-30T04:39:51;11.00;99.90
21246;DHT22;10781;50.928;4.440;2022-09-30T04:42:16;11.00;99.90
21246;DHT22;10781;50.928;4.440;2022-09-30T04:44:43;11.10;99.90
21246;DHT22;10781;50.928;4.440;2022-09-30T04:47:08;11.10;99.90
21246;DHT22;10781;50.928;4.440;2022-09-30T04:49:35;11.20;99.90
21246;DHT22;10781;50.928;4.440;2022-09-30T04:52:00;11.40;99.90
21246;DHT22;10781;50.928;4.440;2022-09-30T04:54:26;11.10;99.90
21246;DHT22;10781;50.928;4.440;2022-09-30T04:56:52;10.90;99.90
21246;DHT22;10781;50.928;4.440;2022-09-30T04:59:17;10.80;99.90
21246;DHT22;10781;50.928;4.440;2022-09-30T05:01:43;10.80;99.90
21246;DHT22;10781;50.928;4.440;2022-09-30T05:04:09;10.90;99.90
21246;DHT22;10781;50.928;4.440;2022-09-30T05:06:37;10.90;99.90
21246;DHT22;10781;50.928;4.440;2022-09-30T05:09:05;11.00;99.90
21246;DHT22;10781;50.928;4.440;2022-09-30T05:11:30;11.10;99.90
21246;DHT22;10781;50.928;4.440;2022-09-30T05:13:56;11.00;99.90
21246;DHT22;10781;50.928;4.440;2022-09-30T05:16:22;11.10;99.90
21246;DHT22;10781;50.928;4.440;2022-09-30T05:18:47;11.10;99.90
21246;DHT22;10781;50.928;4.440;2022-09-30T05:21:16;11.00;99.90
21246;DHT22;10781;50.928;4.440;2022-09-30T05:23:42;10.90;99.90
21246;DHT22;10781;50.928;4.440;2022-09-30T05:26:08;10.80;99.90
21246;DHT22;10781;50.928;4.440;2022-09-30T05:28:33;10.80;99.90
21246;DHT22;10781;50.928;4.440;2022-09-30T05:31:03;11.00;99.90
21246;DHT22;10781;50.928;4.440;2022-09-30T05:33:31;10.90;99.90
21246;DHT22;10781;50.928;4.440;2022-09-30T05:36:05;10.90;99.90
21246;DHT22;10781;50.928;4.440;2022-09-30T05:38:32;11.00;99.90
21246;DHT22;10781;50.928;4.440;2022-09-30T05:40:57;11.00;99.90
21246;DHT22;10781;50.928;4.440;2022-09-30T05:43:23;11.00;99.90
21246;DHT22;10781;50.928;4.440;2022-09-30T05:45:53;11.10;99.90
21246;DHT22;10781;50.928;4.440;2022-09-30T05:48:20;11.00;99.90
21246;DHT22;10781;50.928;4.440;2022-09-30T05:50:46;11.00;99.90
21246;DHT22;10781;50.928;4.440;2022-09-30T05:53:16;10.90;99.90
21246;DHT22;10781;50.928;4.440;2022-09-30T05:55:44;10.90;99.90
21246;DHT22;10781;50.928;4.440;2022-09-30T05:58:12;10.90;99.90
21246;DHT22;10781;50.928;4.440;2022-09-30T06:00:43;11.00;99.90
21246;DHT22;10781;50.928;4.440;2022-09-30T06:03:09;11.10;99.90
21246;DHT22;10781;50.928;4.440;2022-09-30T06:05:36;11.30;99.90
21246;DHT22;10781;50.928;4.440;2022-09-30T06:08:02;11.40;99.90
21246;DHT22;10781;50.928;4.440;2022-09-30T06:10:29;11.60;99.90
21246;DHT22;10781;50.928;4.440;2022-09-30T06:12:54;11.90;99.90
21246;DHT22;10781;50.928;4.440;2022-09-30T06:15:20;12.30;99.90
21246;DHT22;10781;50.928;4.440;2022-09-30T06:17:53;12.50;99.90
21246;DHT22;10781;50.928;4.440;2022-09-30T06:20:19;12.70;99.90
21246;DHT22;10781;50.928;4.440;2022-09-30T06:22:45;13.00;99.90
21246;DHT22;10781;50.928;4.440;2022-09-30T06:25:11;13.30;99.90
21246;DHT22;10781;50.928;4.440;2022-09-30T06:27:36;13.60;99.90
21246;DHT22;10781;50.928;4.440;2022-09-30T06:30:04;13.80;99.90
21246;DHT22;10781;50.928;4.440;2022-09-30T06:32:30;14.00;99.90
21246;DHT22;10781;50.928;4.440;2022-09-30T06:34:55;14.50;99.90
21246;DHT22;10781;50.928;4.440;2022-09-30T06:37:22;14.90;99.90
21246;DHT22;10781;50.928;4.440;2022-09-30T06:39:48;15.40;99.90
21246;DHT22;10781;50.928;4.440;2022-09-30T06:42:15;15.70;99.90
21246;DHT22;10781;50.928;4.440;2022-09-30T06:44:41;16.00;99.90
21246;DHT22;10781;50.928;4.440;2022-09-30T06:47:06;15.80;99.90
21246;DHT22;10781;50.928;4.440;2022-09-30T06:49:33;16.00;99.90
21246;DHT22;10781;50.928;4.440;2022-09-30T06:51:59;16.20;99.90
21246;DHT22;10781;50.928;4.440;2022-09-30T06:54:26;16.60;99.90
21246;DHT22;10781;50.928;4.440;2022-09-30T06:56:53;17.00;99.90
21246;DHT22;10781;50.928;4.440;2022-09-30T06:59:22;17.50;99.90
21246;DHT22;10781;50.928;4.440;2022-09-30T07:01:48;17.80;99.90
21246;DHT22;10781;50.928;4.440;2022-09-30T07:04:13;17.90;99.90
21246;DHT22;10781;50.928;4.440;2022-09-30T07:06:39;18.50;99.90
21246;DHT22;10781;50.928;4.440;2022-09-30T07:09:06;18.50;99.90
21246;DHT22;10781;50.928;4.440;2022-09-30T07:11:32;19.20;99.90
21246;DHT22;10781;50.928;4.440;2022-09-30T07:13:57;19.60;99.90
21246;DHT22;10781;50.928;4.440;2022-09-30T07:16:23;20.50;99.90
21246;DHT22;10781;50.928;4.440;2022-09-30T07:18:50;21.40;99.90
21246;DHT22;10781;50.928;4.440;2022-09-30T07:21:16;22.20;99.90
21246;DHT22;10781;50.928;4.440;2022-09-30T07:23:45;22.60;99.90
21246;DHT22;10781;50.928;4.440;2022-09-30T07:26:19;22.40;99.90
21246;DHT22;10781;50.928;4.440;2022-09-30T07:28:45;23.00;99.90
21246;DHT22;10781;50.928;4.440;2022-09-30T07:31:13;23.80;99.90
21246;DHT22;10781;50.928;4.440;2022-09-30T07:33:41;24.20;99.90
21246;DHT22;10781;50.928;4.440;2022-09-30T07:36:08;24.50;99.90
21246;DHT22;10781;50.928;4.440;2022-09-30T07:38:37;24.90;99.90
21246;DHT22;10781;50.928;4.440;2022-09-30T07:41:09;24.70;99.90
21246;DHT22;10781;50.928;4.440;2022-09-30T07:43:35;24.20;99.60
21246;DHT22;10781;50.928;4.440;2022-09-30T07:46:09;24.20;99.90
21246;DHT22;10781;50.928;4.440;2022-09-30T07:48:35;24.20;99.30
21246;DHT22;10781;50.928;4.440;2022-09-30T07:51:11;23.70;99.90
21246;DHT22;10781;50.928;4.440;2022-09-30T07:53:39;24.60;99.40
21246;DHT22;10781;50.928;4.440;2022-09-30T07:56:06;25.40;98.20
21246;DHT22;10781;50.928;4.440;2022-09-30T07:58:32;25.90;96.30
21246;DHT22;10781;50.928;4.440;2022-09-30T08:00:58;26.20;95.40
21246;DHT22;10781;50.928;4.440;2022-09-30T08:03:23;26.70;94.30
21246;DHT22;10781;50.928;4.440;2022-09-30T08:05:49;27.50;92.70
21246;DHT22;10781;50.928;4.440;2022-09-30T08:08:16;27.90;91.40
21246;DHT22;10781;50.928;4.440;2022-09-30T08:10:42;28.50;90.20
21246;DHT22;10781;50.928;4.440;2022-09-30T08:13:08;28.40;87.50
21246;DHT22;10781;50.928;4.440;2022-09-30T08:15:35;29.10;85.90
21246;DHT22;10781;50.928;4.440;2022-09-30T08:18:00;28.40;85.10
21246;DHT22;10781;50.928;4.440;2022-09-30T08:20:26;28.60;83.30
21246;DHT22;10781;50.928;4.440;2022-09-30T08:22:55;29.20;82.20
21246;DHT22;10781;50.928;4.440;2022-09-30T08:25:22;30.00;78.80
21246;DHT22;10781;50.928;4.440;2022-09-30T08:27:48;30.80;76.00
21246;DHT22;10781;50.928;4.440;2022-09-30T08:30:13;31.00;75.70
21246;DHT22;10781;50.928;4.440;2022-09-30T08:32:39;31.10;70.60
21246;DHT22;10781;50.928;4.440;2022-09-30T08:35:05;31.30;71.10
21246;DHT22;10781;50.928;4.440;2022-09-30T08:37:31;31.60;71.60
21246;DHT22;10781;50.928;4.440;2022-09-30T08:39:56;31.90;67.60
21246;DHT22;10781;50.928;4.440;2022-09-30T08:43:01;32.50;66.60
21246;DHT22;10781;50.928;4.440;2022-09-30T08:48:51;33.10;63.30
21246;DHT22;10781;50.928;4.440;2022-09-30T08:51:31;33.20;60.50
21246;DHT22;10781;50.928;4.440;2022-09-30T08:54:00;33.30;59.20
21246;DHT22;10781;50.928;4.440;2022-09-30T08:56:29;33.10;58.90
21246;DHT22;10781;50.928;4.440;2022-09-30T09:01:46;33.50;58.30
21246;DHT22;10781;50.928;4.440;2022-09-30T09:04:13;33.30;57.00
21246;DHT22;10781;50.928;4.440;2022-09-30T09:06:55;32.70;57.80
21246;DHT22;10781;50.928;4.440;2022-09-30T09:09:43;32.30;57.90
21246;DHT22;10781;50.928;4.440;2022-09-30T09:18:06;33.70;54.80
21246;DHT22;10781;50.928;4.440;2022-09-30T09:20:38;32.20;57.50
21246;DHT22;10781;50.928;4.440;2022-09-30T09:23:10;31.40;58.20
21246;DHT22;10781;50.928;4.440;2022-09-30T09:25:37;32.10;60.20
21246;DHT22;10781;50.928;4.440;2022-09-30T09:28:11;32.00;57.60
21246;DHT22;10781;50.928;4.440;2022-09-30T09:30:46;32.30;58.50
21246;DHT22;10781;50.928;4.440;2022-09-30T09:33:19;32.70;57.70
21246;DHT22;10781;50.928;4.440;2022-09-30T09:36:06;33.50;57.00
21246;DHT22;10781;50.928;4.440;2022-09-30T09:38:42;32.10;55.90
21246;DHT22;10781;50.928;4.440;2022-09-30T09:41:45;31.00;58.70
21246;DHT22;10781;50.928;4.440;2022-09-30T09:47:01;31.90;58.10
21246;DHT22;10781;50.928;4.440;2022-09-30T09:49:35;33.40;56.60
21246;DHT22;10781;50.928;4.440;2022-09-30T09:54:48;34.70;55.10
21246;DHT22;10781;50.928;4.440;2022-09-30T09:57:18;35.40;53.60
21246;DHT22;10781;50.928;4.440;2022-09-30T10:00:08;35.20;51.60
21246;DHT22;10781;50.928;4.440;2022-09-30T10:03:03;33.90;52.40
21246;DHT22;10781;50.928;4.440;2022-09-30T10:05:31;34.30;53.90
21246;DHT22;10781;50.928;4.440;2022-09-30T10:08:11;34.40;51.80
21246;DHT22;10781;50.928;4.440;2022-09-30T10:11:03;34.30;52.30
21246;DHT22;10781;50.928;4.440;2022-09-30T10:13:41;34.30;51.70
21246;DHT22;10781;50.928;4.440;2022-09-30T10:16:31;33.20;52.00
21246;DHT22;10781;50.928;4.440;2022-09-30T10:18:59;33.60;53.20
21246;DHT22;10781;50.928;4.440;2022-09-30T10:21:27;33.90;52.70
21246;DHT22;10781;50.928;4.440;2022-09-30T10:23:53;33.00;51.80
21246;DHT22;10781;50.928;4.440;2022-09-30T10:26:24;32.50;54.00
21246;DHT22;10781;50.928;4.440;2022-09-30T10:28:59;32.80;55.20
21246;DHT22;10781;50.928;4.440;2022-09-30T10:31:37;32.30;53.20
21246;DHT22;10781;50.928;4.440;2022-09-30T10:36:47;33.90;50.70
21246;DHT22;10781;50.928;4.440;2022-09-30T10:39:20;33.00;51.80
21246;DHT22;10781;50.928;4.440;2022-09-30T10:41:49;34.10;51.50
21246;DHT22;10781;50.928;4.440;2022-09-30T10:44:20;32.50;50.80
21246;DHT22;10781;50.928;4.440;2022-09-30T10:46:48;32.60;50.80
21246;DHT22;10781;50.928;4.440;2022-09-30T10:49:40;33.80;50.90
21246;DHT22;10781;50.928;4.440;2022-09-30T10:54:49;32.50;50.60
21246;DHT22;10781;50.928;4.440;2022-09-30T10:59:47;31.10;53.40
21246;DHT22;10781;50.928;4.440;2022-09-30T11:05:12;33.00;52.20
21246;DHT22;10781;50.928;4.440;2022-09-30T11:13:09;33.60;51.20
21246;DHT22;10781;50.928;4.440;2022-09-30T11:15:50;33.40;49.50
21246;DHT22;10781;50.928;4.440;2022-09-30T11:18:30;31.90;50.00
21246;DHT22;10781;50.928;4.440;2022-09-30T11:21:28;32.30;51.40
21246;DHT22;10781;50.928;4.440;2022-09-30T11:30:08;32.80;50.00
21246;DHT22;10781;50.928;4.440;2022-09-30T11:39:37;33.00;49.40
21246;DHT22;10781;50.928;4.440;2022-09-30T11:48:31;31.20;51.40
21246;DHT22;10781;50.928;4.440;2022-09-30T11:51:18;30.30;50.60
21246;DHT22;10781;50.928;4.440;2022-09-30T11:59:33;31.70;51.50
21246;DHT22;10781;50.928;4.440;2022-09-30T12:02:02;32.90;49.50
21246;DHT22;10781;50.928;4.440;2022-09-30T12:04:38;32.30;48.40
21246;DHT22;10781;50.928;4.440;2022-09-30T12:07:11;31.70;49.20
21246;DHT22;10781;50.928;4.440;2022-09-30T12:12:10;31.00;50.20
21246;DHT22;10781;50.928;4.440;2022-09-30T12:14:50;29.40;52.00
21246;DHT22;10781;50.928;4.440;2022-09-30T12:17:38;28.90;54.60
21246;DHT22;10781;50.928;4.440;2022-09-30T12:25:50;28.60;54.60
21246;DHT22;10781;50.928;4.440;2022-09-30T12:28:40;27.30;56.40
21246;DHT22;10781;50.928;4.440;2022-09-30T12:31:44;26.10;59.00
21246;DHT22;10781;50.928;4.440;2022-09-30T12:34:42;25.20;60.90
21246;DHT22;10781;50.928;4.440;2022-09-30T12:43:35;25.80;60.40
21246;DHT22;10781;50.928;4.440;2022-09-30T12:46:15;26.20;61.10
21246;DHT22;10781;50.928;4.440;2022-09-30T12:48:50;26.60;59.60
21246;DHT22;10781;50.928;4.440;2022-09-30T12:51:41;27.70;57.90
21246;DHT22;10781;50.928;4.440;2022-09-30T12:54:24;28.20;57.90
21246;DHT22;10781;50.928;4.440;2022-09-30T12:56:59;28.90;56.40
21246;DHT22;10781;50.928;4.440;2022-09-30T12:59:30;28.40;54.40
21246;DHT22;10781;50.928;4.440;2022-09-30T13:01:57;27.50;56.00
21246;DHT22;10781;50.928;4.440;2022-09-30T13:04:34;26.10;59.00
21246;DHT22;10781;50.928;4.440;2022-09-30T13:09:36;25.60;61.80
21246;DHT22;10781;50.928;4.440;2022-09-30T13:14:40;27.50;60.00
21246;DHT22;10781;50.928;4.440;2022-09-30T13:19:48;28.10;57.60
21246;DHT22;10781;50.928;4.440;2022-09-30T13:25:14;27.60;58.00
21246;DHT22;10781;50.928;4.440;2022-09-30T13:27:48;27.20;58.00
21246;DHT22;10781;50.928;4.440;2022-09-30T13:32:46;26.30;60.70
21246;DHT22;10781;50.928;4.440;2022-09-30T13:35:31;26.50;60.50
21246;DHT22;10781;50.928;4.440;2022-09-30T13:46:24;25.30;62.60
21246;DHT22;10781;50.928;4.440;2022-09-30T13:48:59;25.30;63.10
21246;DHT22;10781;50.928;4.440;2022-09-30T13:51:28;25.80;62.20
21246;DHT22;10781;50.928;4.440;2022-09-30T13:53:57;26.50;60.30
21246;DHT22;10781;50.928;4.440;2022-09-30T13:56:29;26.90;59.90
21246;DHT22;10781;50.928;4.440;2022-09-30T14:22:55;23.10;68.60
21246;DHT22;10781;50.928;4.440;2022-09-30T14:25:21;23.20;68.10
21246;DHT22;10781;50.928;4.440;2022-09-30T14:28:11;23.50;69.20
21246;DHT22;10781;50.928;4.440;2022-09-30T14:30:41;23.40;66.20
21246;DHT22;10781;50.928;4.440;2022-09-30T14:33:28;23.40;66.90
21246;DHT22;10781;50.928;4.440;2022-09-30T14:35:59;23.40;68.00
21246;DHT22;10781;50.928;4.440;2022-09-30T14:38:28;23.40;67.10
21246;DHT22;10781;50.928;4.440;2022-09-30T14:41:06;23.20;68.30
21246;DHT22;10781;50.928;4.440;2022-09-30T14:43:41;23.30;68.90
21246;DHT22;10781;50.928;4.440;2022-09-30T14:46:14;24.00;65.80
21246;DHT22;10781;50.928;4.440;2022-09-30T14:48:43;24.00;66.40
21246;DHT22;10781;50.928;4.440;2022-09-30T14:51:11;24.30;65.00
21246;DHT22;10781;50.928;4.440;2022-09-30T14:53:53;24.30;64.60
21246;DHT22;10781;50.928;4.440;2022-09-30T14:56:24;23.80;66.00
21246;DHT22;10781;50.928;4.440;2022-09-30T14:58:52;23.40;67.30
21246;DHT22;10781;50.928;4.440;2022-09-30T15:01:19;23.90;66.00
21246;DHT22;10781;50.928;4.440;2022-09-30T15:04:05;24.20;65.10
21246;DHT22;10781;50.928;4.440;2022-09-30T15:06:36;25.20;63.00
21246;DHT22;10781;50.928;4.440;2022-09-30T15:09:07;25.50;62.50
21246;DHT22;10781;50.928;4.440;2022-09-30T15:11:39;25.30;62.70
21246;DHT22;10781;50.928;4.440;2022-09-30T15:14:22;25.20;62.50
21246;DHT22;10781;50.928;4.440;2022-09-30T15:19:21;24.90;63.00
21246;DHT22;10781;50.928;4.440;2022-09-30T15:21:51;24.40;64.50
21246;DHT22;10781;50.928;4.440;2022-09-30T15:24:19;24.00;64.30
21246;DHT22;10781;50.928;4.440;2022-09-30T15:26:46;23.20;66.00
21246;DHT22;10781;50.928;4.440;2022-09-30T15:29:14;22.60;67.60
21246;DHT22;10781;50.928;4.440;2022-09-30T15:31:46;22.10;69.70
21246;DHT22;10781;50.928;4.440;2022-09-30T15:34:19;21.60;71.40
21246;DHT22;10781;50.928;4.440;2022-09-30T15:36:48;21.40;71.80
21246;DHT22;10781;50.928;4.440;2022-09-30T15:39:27;21.50;72.80
21246;DHT22;10781;50.928;4.440;2022-09-30T15:42:13;21.70;73.80
21246;DHT22;10781;50.928;4.440;2022-09-30T15:44:40;22.00;71.90
21246;DHT22;10781;50.928;4.440;2022-09-30T15:47:08;22.10;71.60
21246;DHT22;10781;50.928;4.440;2022-09-30T15:55:01;22.10;71.50
21246;DHT22;10781;50.928;4.440;2022-09-30T15:57:45;21.90;70.90
21246;DHT22;10781;50.928;4.440;2022-09-30T16:03:28;21.70;73.10
21246;DHT22;10781;50.928;4.440;2022-09-30T16:06:09;21.60;72.90
21246;DHT22;10781;50.928;4.440;2022-09-30T16:08:48;21.30;73.10
21246;DHT22;10781;50.928;4.440;2022-09-30T16:11:24;21.20;73.70
21246;DHT22;10781;50.928;4.440;2022-09-30T16:13:51;21.00;73.40
21246;DHT22;10781;50.928;4.440;2022-09-30T16:16:19;20.90;74.80
21246;DHT22;10781;50.928;4.440;2022-09-30T16:18:47;20.50;75.80
21246;DHT22;10781;50.928;4.440;2022-09-30T16:26:52;20.20;78.20
21246;DHT22;10781;50.928;4.440;2022-09-30T16:29:18;20.10;78.00
21246;DHT22;10781;50.928;4.440;2022-09-30T16:31:46;20.10;79.60
21246;DHT22;10781;50.928;4.440;2022-09-30T16:34:25;20.00;79.60
21246;DHT22;10781;50.928;4.440;2022-09-30T16:36:53;19.90;80.80
21246;DHT22;10781;50.928;4.440;2022-09-30T16:39:19;19.80;81.20
21246;DHT22;10781;50.928;4.440;2022-09-30T16:41:45;19.60;82.00
21246;DHT22;10781;50.928;4.440;2022-09-30T16:44:11;19.60;82.60
21246;DHT22;10781;50.928;4.440;2022-09-30T16:46:37;19.30;84.50
21246;DHT22;10781;50.928;4.440;2022-09-30T16:49:18;19.10;85.40
21246;DHT22;10781;50.928;4.440;2022-09-30T16:51:44;19.10;87.60
21246;DHT22;10781;50.928;4.440;2022-09-30T16:54:10;19.10;87.50
21246;DHT22;10781;50.928;4.440;2022-09-30T16:56:36;19.20;88.10
21246;DHT22;10781;50.928;4.440;2022-09-30T16:59:02;19.30;88.70
21246;DHT22;10781;50.928;4.440;2022-09-30T17:01:28;19.10;89.50
21246;DHT22;10781;50.928;4.440;2022-09-30T17:03:55;19.20;88.90
21246;DHT22;10781;50.928;4.440;2022-09-30T17:06:27;19.10;89.50
21246;DHT22;10781;50.928;4.440;2022-09-30T17:08:53;18.90;90.00
21246;DHT22;10781;50.928;4.440;2022-09-30T17:11:28;18.90;90.50
21246;DHT22;10781;50.928;4.440;2022-09-30T17:13:56;18.80;90.80
21246;DHT22;10781;50.928;4.440;2022-09-30T17:16:22;18.80;91.70
21246;DHT22;10781;50.928;4.440;2022-09-30T17:18:49;18.70;91.60
21246;DHT22;10781;50.928;4.440;2022-09-30T17:21:19;18.60;91.60
21246;DHT22;10781;50.928;4.440;2022-09-30T17:23:44;18.60;92.40
21246;DHT22;10781;50.928;4.440;2022-09-30T17:26:10;18.60;92.40
21246;DHT22;10781;50.928;4.440;2022-09-30T17:28:36;18.50;92.70
21246;DHT22;10781;50.928;4.440;2022-09-30T17:31:02;18.30;93.10
21246;DHT22;10781;50.928;4.440;2022-09-30T17:33:32;18.30;93.50
21246;DHT22;10781;50.928;4.440;2022-09-30T17:36:03;18.30;93.30
21246;DHT22;10781;50.928;4.440;2022-09-30T17:38:31;18.20;93.60
21246;DHT22;10781;50.928;4.440;2022-09-30T17:40:57;18.00;94.10
21246;DHT22;10781;50.928;4.440;2022-09-30T17:43:42;18.00;94.60
21246;DHT22;10781;50.928;4.440;2022-09-30T17:46:10;17.90;95.40
21246;DHT22;10781;50.928;4.440;2022-09-30T17:48:35;17.80;95.80
21246;DHT22;10781;50.928;4.440;2022-09-30T17:51:02;17.70;96.20
21246;DHT22;10781;50.928;4.440;2022-09-30T17:53:28;17.60;96.70
21246;DHT22;10781;50.928;4.440;2022-09-30T17:56:06;17.60;96.90
21246;DHT22;10781;50.928;4.440;2022-09-30T17:58:37;17.50;97.60
21246;DHT22;10781;50.928;4.440;2022-09-30T18:01:07;17.30;98.80
21246;DHT22;10781;50.928;4.440;2022-09-30T18:03:34;17.40;98.80
21246;DHT22;10781;50.928;4.440;2022-09-30T18:06:00;17.40;99.40
21246;DHT22;10781;50.928;4.440;2022-09-30T18:08:26;17.40;99.30
21246;DHT22;10781;50.928;4.440;2022-09-30T18:10:53;17.20;99.90
21246;DHT22;10781;50.928;4.440;2022-09-30T18:13:18;17.10;99.90
21246;DHT22;10781;50.928;4.440;2022-09-30T18:15:45;17.20;99.90
21246;DHT22;10781;50.928;4.440;2022-09-30T18:18:11;17.40;99.90
21246;DHT22;10781;50.928;4.440;2022-09-30T18:20:42;17.50;99.90
21246;DHT22;10781;50.928;4.440;2022-09-30T18:23:09;17.40;99.90
21246;DHT22;10781;50.928;4.440;2022-09-30T18:25:35;17.60;99.90
21246;DHT22;10781;50.928;4.440;2022-09-30T18:28:01;17.40;99.90
21246;DHT22;10781;50.928;4.440;2022-09-30T18:30:27;17.50;99.90
21246;DHT22;10781;50.928;4.440;2022-09-30T18:32:53;17.60;99.90
21246;DHT22;10781;50.928;4.440;2022-09-30T18:35:21;17.50;99.90
21246;DHT22;10781;50.928;4.440;2022-09-30T18:37:47;17.50;99.90
21246;DHT22;10781;50.928;4.440;2022-09-30T18:40:21;17.40;99.90
21246;DHT22;10781;50.928;4.440;2022-09-30T18:42:51;17.40;99.90
21246;DHT22;10781;50.928;4.440;2022-09-30T18:45:17;17.50;99.90
21246;DHT22;10781;50.928;4.440;2022-09-30T18:47:43;17.30;99.90
21246;DHT22;10781;50.928;4.440;2022-09-30T18:50:10;17.20;99.90